sensor_id;sensor_type;location;lat;lon;timestamp;P1;durP1;ratioP1;P2;durP2;ratioP2
15126;SDS011;7664;52.008;4.748;2023-03-31T00:00:12;11.63;;;1.65;;
15126;SDS011;7664;52.008;4.748;2023-03-31T00:02:43;9.48;;;2.03;;
15126;SDS011;7664;52.008;4.748;2023-03-31T00:05:12;8.05;;;2.85;;
15126;SDS011;7664;52.008;4.748;2023-03-31T00:07:43;6.88;;;1.85;;
15126;SDS011;7664;52.008;4.748;2023-03-31T00:10:13;9.60;;;2.35;;
15126;SDS011;7664;52.008;4.748;2023-03-31T00:12:44;8.43;;;2.10;;
15126;SDS011;7664;52.008;4.748;2023-03-31T00:15:13;11.18;;;2.45;;
15126;SDS011;7664;52.008;4.748;2023-03-31T00:17:43;10.05;;;2.08;;
15126;SDS011;7664;52.008;4.748;2023-03-31T00:20:12;9.32;;;1.75;;
15126;SDS011;7664;52.008;4.748;2023-03-31T00:22:41;8.18;;;1.75;;
15126;SDS011;7664;52.008;4.748;2023-03-31T00:25:12;6.57;;;1.25;;
15126;SDS011;7664;52.008;4.748;2023-03-31T00:27:41;8.63;;;2.33;;
15126;SDS011;7664;52.008;4.748;2023-03-31T00:30:11;11.60;;;2.38;;
15126;SDS011;7664;52.008;4.748;2023-03-31T00:32:40;7.35;;;1.77;;
15126;SDS011;7664;52.008;4.748;2023-03-31T00:35:10;7.13;;;1.60;;
15126;SDS011;7664;52.008;4.748;2023-03-31T00:37:38;7.00;;;1.95;;
15126;SDS011;7664;52.008;4.748;2023-03-31T00:40:09;9.77;;;2.08;;
15126;SDS011;7664;52.008;4.748;2023-03-31T00:42:39;11.40;;;1.98;;
15126;SDS011;7664;52.008;4.748;2023-03-31T00:45:26;6.72;;;1.95;;
15126;SDS011;7664;52.008;4.748;2023-03-31T00:48:01;6.95;;;1.77;;
15126;SDS011;7664;52.008;4.748;2023-03-31T00:50:40;4.65;;;1.40;;
15126;SDS011;7664;52.008;4.748;2023-03-31T00:53:10;11.02;;;2.22;;
15126;SDS011;7664;52.008;4.748;2023-03-31T00:55:40;4.53;;;1.48;;
15126;SDS011;7664;52.008;4.748;2023-03-31T00:58:09;5.43;;;1.88;;
15126;SDS011;7664;52.008;4.748;2023-03-31T01:00:45;6.07;;;1.60;;
15126;SDS011;7664;52.008;4.748;2023-03-31T01:03:14;4.80;;;1.48;;
15126;SDS011;7664;52.008;4.748;2023-03-31T01:05:49;5.40;;;1.55;;
15126;SDS011;7664;52.008;4.748;2023-03-31T01:08:20;6.07;;;1.83;;
15126;SDS011;7664;52.008;4.748;2023-03-31T01:10:54;5.55;;;1.30;;
15126;SDS011;7664;52.008;4.748;2023-03-31T01:13:23;6.47;;;1.30;;
15126;SDS011;7664;52.008;4.748;2023-03-31T01:15:54;5.30;;;1.30;;
15126;SDS011;7664;52.008;4.748;2023-03-31T01:18:25;4.63;;;1.42;;
15126;SDS011;7664;52.008;4.748;2023-03-31T01:21:02;7.68;;;1.70;;
15126;SDS011;7664;52.008;4.748;2023-03-31T01:23:50;7.20;;;1.30;;
15126;SDS011;7664;52.008;4.748;2023-03-31T01:26:32;5.53;;;1.77;;
15126;SDS011;7664;52.008;4.748;2023-03-31T01:29:08;3.15;;;1.13;;
15126;SDS011;7664;52.008;4.748;2023-03-31T01:40:06;7.28;;;1.63;;
15126;SDS011;7664;52.008;4.748;2023-03-31T01:42:37;3.83;;;1.45;;
15126;SDS011;7664;52.008;4.748;2023-03-31T01:45:11;5.82;;;1.77;;
15126;SDS011;7664;52.008;4.748;2023-03-31T01:47:44;6.85;;;1.67;;
15126;SDS011;7664;52.008;4.748;2023-03-31T01:50:15;8.65;;;1.73;;
15126;SDS011;7664;52.008;4.748;2023-03-31T01:52:48;8.50;;;2.15;;
15126;SDS011;7664;52.008;4.748;2023-03-31T01:55:21;8.73;;;1.55;;
15126;SDS011;7664;52.008;4.748;2023-03-31T01:57:56;7.40;;;1.70;;
15126;SDS011;7664;52.008;4.748;2023-03-31T02:00:27;10.73;;;1.80;;
15126;SDS011;7664;52.008;4.748;2023-03-31T02:02:59;8.27;;;1.70;;
15126;SDS011;7664;52.008;4.748;2023-03-31T02:05:32;8.48;;;1.58;;
15126;SDS011;7664;52.008;4.748;2023-03-31T02:08:08;4.95;;;1.38;;
15126;SDS011;7664;52.008;4.748;2023-03-31T02:10:46;9.18;;;1.40;;
15126;SDS011;7664;52.008;4.748;2023-03-31T02:13:15;9.30;;;1.83;;
15126;SDS011;7664;52.008;4.748;2023-03-31T02:15:45;6.47;;;1.10;;
15126;SDS011;7664;52.008;4.748;2023-03-31T02:18:15;8.45;;;1.90;;
15126;SDS011;7664;52.008;4.748;2023-03-31T02:20:51;8.23;;;1.90;;
15126;SDS011;7664;52.008;4.748;2023-03-31T02:23:24;4.18;;;1.02;;
15126;SDS011;7664;52.008;4.748;2023-03-31T02:25:58;8.57;;;1.38;;
15126;SDS011;7664;52.008;4.748;2023-03-31T02:28:28;4.70;;;0.98;;
15126;SDS011;7664;52.008;4.748;2023-03-31T02:31:02;3.92;;;1.15;;
15126;SDS011;7664;52.008;4.748;2023-03-31T02:33:32;4.57;;;0.70;;
15126;SDS011;7664;52.008;4.748;2023-03-31T02:36:03;2.72;;;1.38;;
15126;SDS011;7664;52.008;4.748;2023-03-31T02:38:34;2.88;;;1.05;;
15126;SDS011;7664;52.008;4.748;2023-03-31T02:41:06;4.22;;;1.20;;
15126;SDS011;7664;52.008;4.748;2023-03-31T02:43:42;6.25;;;1.30;;
15126;SDS011;7664;52.008;4.748;2023-03-31T02:46:13;7.00;;;1.80;;
15126;SDS011;7664;52.008;4.748;2023-03-31T02:48:42;4.70;;;1.70;;
15126;SDS011;7664;52.008;4.748;2023-03-31T02:51:17;6.97;;;1.98;;
15126;SDS011;7664;52.008;4.748;2023-03-31T02:53:54;9.43;;;2.83;;
15126;SDS011;7664;52.008;4.748;2023-03-31T02:56:47;5.78;;;1.33;;
15126;SDS011;7664;52.008;4.748;2023-03-31T02:59:22;7.75;;;1.98;;
15126;SDS011;7664;52.008;4.748;2023-03-31T03:02:01;6.68;;;1.98;;
15126;SDS011;7664;52.008;4.748;2023-03-31T03:04:45;8.77;;;2.10;;
15126;SDS011;7664;52.008;4.748;2023-03-31T03:07:16;6.85;;;2.15;;
15126;SDS011;7664;52.008;4.748;2023-03-31T03:09:49;5.75;;;1.95;;
15126;SDS011;7664;52.008;4.748;2023-03-31T03:12:24;5.35;;;1.90;;
15126;SDS011;7664;52.008;4.748;2023-03-31T03:14:57;6.70;;;2.28;;
15126;SDS011;7664;52.008;4.748;2023-03-31T03:17:27;5.05;;;1.88;;
15126;SDS011;7664;52.008;4.748;2023-03-31T03:19:58;5.70;;;1.92;;
15126;SDS011;7664;52.008;4.748;2023-03-31T03:22:27;8.93;;;1.73;;
15126;SDS011;7664;52.008;4.748;2023-03-31T03:24:55;6.20;;;1.52;;
15126;SDS011;7664;52.008;4.748;2023-03-31T03:27:27;7.03;;;2.10;;
15126;SDS011;7664;52.008;4.748;2023-03-31T03:29:58;5.55;;;1.25;;
15126;SDS011;7664;52.008;4.748;2023-03-31T03:32:28;3.90;;;1.38;;
15126;SDS011;7664;52.008;4.748;2023-03-31T03:34:59;7.22;;;1.52;;
15126;SDS011;7664;52.008;4.748;2023-03-31T03:37:28;3.97;;;1.15;;
15126;SDS011;7664;52.008;4.748;2023-03-31T03:40:01;4.82;;;1.42;;
15126;SDS011;7664;52.008;4.748;2023-03-31T03:42:32;4.40;;;1.65;;
15126;SDS011;7664;52.008;4.748;2023-03-31T03:45:01;5.63;;;1.65;;
15126;SDS011;7664;52.008;4.748;2023-03-31T03:47:31;10.35;;;2.20;;
15126;SDS011;7664;52.008;4.748;2023-03-31T03:50:02;6.75;;;1.85;;
15126;SDS011;7664;52.008;4.748;2023-03-31T03:52:30;4.43;;;1.42;;
15126;SDS011;7664;52.008;4.748;2023-03-31T03:55:04;4.65;;;1.85;;
15126;SDS011;7664;52.008;4.748;2023-03-31T03:57:34;4.80;;;1.90;;
15126;SDS011;7664;52.008;4.748;2023-03-31T04:00:03;6.40;;;1.40;;
15126;SDS011;7664;52.008;4.748;2023-03-31T04:02:36;4.75;;;1.73;;
15126;SDS011;7664;52.008;4.748;2023-03-31T04:05:05;7.78;;;1.58;;
15126;SDS011;7664;52.008;4.748;2023-03-31T04:07:41;6.95;;;1.38;;
15126;SDS011;7664;52.008;4.748;2023-03-31T04:10:09;6.25;;;1.58;;
15126;SDS011;7664;52.008;4.748;2023-03-31T04:12:39;7.03;;;1.95;;
15126;SDS011;7664;52.008;4.748;2023-03-31T04:15:08;7.22;;;1.48;;
15126;SDS011;7664;52.008;4.748;2023-03-31T04:17:39;6.45;;;1.48;;
15126;SDS011;7664;52.008;4.748;2023-03-31T04:20:16;6.55;;;2.28;;
15126;SDS011;7664;52.008;4.748;2023-03-31T04:22:53;3.50;;;1.35;;
15126;SDS011;7664;52.008;4.748;2023-03-31T04:25:24;5.88;;;1.70;;
15126;SDS011;7664;52.008;4.748;2023-03-31T04:27:57;5.15;;;1.25;;
15126;SDS011;7664;52.008;4.748;2023-03-31T04:30:32;5.53;;;1.60;;
15126;SDS011;7664;52.008;4.748;2023-03-31T04:33:06;9.07;;;1.60;;
15126;SDS011;7664;52.008;4.748;2023-03-31T04:35:41;5.85;;;1.45;;
15126;SDS011;7664;52.008;4.748;2023-03-31T04:38:15;4.95;;;1.63;;
15126;SDS011;7664;52.008;4.748;2023-03-31T04:40:45;4.35;;;1.30;;
15126;SDS011;7664;52.008;4.748;2023-03-31T04:43:15;6.30;;;1.40;;
15126;SDS011;7664;52.008;4.748;2023-03-31T04:45:43;4.22;;;1.83;;
15126;SDS011;7664;52.008;4.748;2023-03-31T04:48:12;7.07;;;1.48;;
15126;SDS011;7664;52.008;4.748;2023-03-31T04:50:41;2.30;;;1.10;;
15126;SDS011;7664;52.008;4.748;2023-03-31T04:53:09;3.75;;;1.10;;
15126;SDS011;7664;52.008;4.748;2023-03-31T04:55:38;6.40;;;1.48;;
15126;SDS011;7664;52.008;4.748;2023-03-31T04:58:06;2.92;;;1.13;;
15126;SDS011;7664;52.008;4.748;2023-03-31T05:00:36;5.05;;;2.13;;
15126;SDS011;7664;52.008;4.748;2023-03-31T05:03:05;7.60;;;1.20;;
15126;SDS011;7664;52.008;4.748;2023-03-31T05:05:34;5.88;;;1.33;;
15126;SDS011;7664;52.008;4.748;2023-03-31T05:08:04;5.18;;;1.23;;
15126;SDS011;7664;52.008;4.748;2023-03-31T05:10:33;1.63;;;0.90;;
15126;SDS011;7664;52.008;4.748;2023-03-31T05:13:04;5.78;;;1.38;;
15126;SDS011;7664;52.008;4.748;2023-03-31T05:15:33;3.65;;;1.02;;
15126;SDS011;7664;52.008;4.748;2023-03-31T05:18:08;2.30;;;0.70;;
15126;SDS011;7664;52.008;4.748;2023-03-31T05:20:39;4.25;;;1.00;;
15126;SDS011;7664;52.008;4.748;2023-03-31T05:23:09;4.25;;;0.98;;
15126;SDS011;7664;52.008;4.748;2023-03-31T05:25:38;1.98;;;0.70;;
15126;SDS011;7664;52.008;4.748;2023-03-31T05:28:09;3.00;;;0.80;;
15126;SDS011;7664;52.008;4.748;2023-03-31T05:30:38;2.95;;;0.90;;
15126;SDS011;7664;52.008;4.748;2023-03-31T05:33:07;5.10;;;1.23;;
15126;SDS011;7664;52.008;4.748;2023-03-31T05:35:36;3.80;;;0.93;;
15126;SDS011;7664;52.008;4.748;2023-03-31T05:38:07;3.05;;;1.05;;
15126;SDS011;7664;52.008;4.748;2023-03-31T05:40:37;4.43;;;1.20;;
15126;SDS011;7664;52.008;4.748;2023-03-31T05:43:12;4.47;;;1.00;;
15126;SDS011;7664;52.008;4.748;2023-03-31T05:45:41;2.28;;;0.90;;
15126;SDS011;7664;52.008;4.748;2023-03-31T05:48:11;7.63;;;1.15;;
15126;SDS011;7664;52.008;4.748;2023-03-31T05:50:43;3.58;;;0.90;;
15126;SDS011;7664;52.008;4.748;2023-03-31T05:53:14;2.00;;;0.70;;
15126;SDS011;7664;52.008;4.748;2023-03-31T05:55:47;4.35;;;1.17;;
15126;SDS011;7664;52.008;4.748;2023-03-31T05:58:16;3.67;;;1.02;;
15126;SDS011;7664;52.008;4.748;2023-03-31T06:00:45;0.77;;;0.70;;
15126;SDS011;7664;52.008;4.748;2023-03-31T06:03:15;4.32;;;1.17;;
15126;SDS011;7664;52.008;4.748;2023-03-31T06:05:46;2.35;;;0.65;;
15126;SDS011;7664;52.008;4.748;2023-03-31T06:08:14;3.38;;;0.98;;
15126;SDS011;7664;52.008;4.748;2023-03-31T06:10:44;3.10;;;0.98;;
15126;SDS011;7664;52.008;4.748;2023-03-31T06:13:13;6.63;;;1.07;;
15126;SDS011;7664;52.008;4.748;2023-03-31T06:15:41;2.65;;;0.90;;
15126;SDS011;7664;52.008;4.748;2023-03-31T06:18:10;1.15;;;0.60;;
15126;SDS011;7664;52.008;4.748;2023-03-31T06:20:42;3.60;;;0.98;;
15126;SDS011;7664;52.008;4.748;2023-03-31T06:23:11;1.98;;;0.85;;
15126;SDS011;7664;52.008;4.748;2023-03-31T06:25:45;3.10;;;0.90;;
15126;SDS011;7664;52.008;4.748;2023-03-31T06:28:18;2.47;;;1.10;;
15126;SDS011;7664;52.008;4.748;2023-03-31T06:30:49;2.17;;;0.80;;
15126;SDS011;7664;52.008;4.748;2023-03-31T06:33:25;1.77;;;0.57;;
15126;SDS011;7664;52.008;4.748;2023-03-31T06:35:56;5.13;;;1.02;;
15126;SDS011;7664;52.008;4.748;2023-03-31T06:38:25;2.78;;;0.80;;
15126;SDS011;7664;52.008;4.748;2023-03-31T06:40:55;2.42;;;0.88;;
15126;SDS011;7664;52.008;4.748;2023-03-31T06:43:26;1.85;;;0.57;;
15126;SDS011;7664;52.008;4.748;2023-03-31T06:45:57;4.72;;;0.85;;
15126;SDS011;7664;52.008;4.748;2023-03-31T06:48:26;2.47;;;0.70;;
15126;SDS011;7664;52.008;4.748;2023-03-31T06:50:58;3.33;;;0.80;;
15126;SDS011;7664;52.008;4.748;2023-03-31T06:53:27;6.18;;;1.13;;
15126;SDS011;7664;52.008;4.748;2023-03-31T06:55:58;3.70;;;1.27;;
15126;SDS011;7664;52.008;4.748;2023-03-31T06:58:35;4.85;;;1.02;;
15126;SDS011;7664;52.008;4.748;2023-03-31T07:01:06;2.97;;;1.00;;
15126;SDS011;7664;52.008;4.748;2023-03-31T07:03:37;3.08;;;1.10;;
15126;SDS011;7664;52.008;4.748;2023-03-31T07:06:08;3.85;;;1.35;;
15126;SDS011;7664;52.008;4.748;2023-03-31T07:08:41;2.15;;;0.85;;
15126;SDS011;7664;52.008;4.748;2023-03-31T07:11:14;2.03;;;0.85;;
15126;SDS011;7664;52.008;4.748;2023-03-31T07:13:46;4.07;;;1.33;;
15126;SDS011;7664;52.008;4.748;2023-03-31T07:16:16;4.40;;;1.40;;
15126;SDS011;7664;52.008;4.748;2023-03-31T07:18:45;2.58;;;0.90;;
15126;SDS011;7664;52.008;4.748;2023-03-31T07:21:17;2.17;;;1.10;;
15126;SDS011;7664;52.008;4.748;2023-03-31T07:23:46;2.22;;;1.02;;
15126;SDS011;7664;52.008;4.748;2023-03-31T07:26:14;1.75;;;0.63;;
15126;SDS011;7664;52.008;4.748;2023-03-31T07:28:43;1.50;;;0.90;;
15126;SDS011;7664;52.008;4.748;2023-03-31T07:31:12;1.20;;;0.70;;
15126;SDS011;7664;52.008;4.748;2023-03-31T07:33:41;3.00;;;1.05;;
15126;SDS011;7664;52.008;4.748;2023-03-31T07:36:09;3.50;;;1.13;;
15126;SDS011;7664;52.008;4.748;2023-03-31T07:38:45;5.65;;;1.75;;
15126;SDS011;7664;52.008;4.748;2023-03-31T07:41:17;4.90;;;2.10;;
15126;SDS011;7664;52.008;4.748;2023-03-31T07:43:49;3.95;;;1.42;;
15126;SDS011;7664;52.008;4.748;2023-03-31T07:46:19;4.22;;;2.05;;
15126;SDS011;7664;52.008;4.748;2023-03-31T07:48:48;3.90;;;1.50;;
15126;SDS011;7664;52.008;4.748;2023-03-31T07:51:18;7.97;;;1.70;;
15126;SDS011;7664;52.008;4.748;2023-03-31T07:53:49;6.40;;;1.67;;
15126;SDS011;7664;52.008;4.748;2023-03-31T07:56:18;5.88;;;1.58;;
15126;SDS011;7664;52.008;4.748;2023-03-31T07:58:47;6.53;;;1.63;;
15126;SDS011;7664;52.008;4.748;2023-03-31T08:01:20;3.90;;;1.25;;
15126;SDS011;7664;52.008;4.748;2023-03-31T08:03:52;5.50;;;1.73;;
15126;SDS011;7664;52.008;4.748;2023-03-31T08:06:22;5.80;;;1.77;;
15126;SDS011;7664;52.008;4.748;2023-03-31T08:08:57;5.47;;;1.52;;
15126;SDS011;7664;52.008;4.748;2023-03-31T08:11:26;3.03;;;1.08;;
15126;SDS011;7664;52.008;4.748;2023-03-31T08:13:59;6.13;;;2.00;;
15126;SDS011;7664;52.008;4.748;2023-03-31T08:16:30;6.63;;;1.70;;
15126;SDS011;7664;52.008;4.748;2023-03-31T08:18:59;7.43;;;1.40;;
15126;SDS011;7664;52.008;4.748;2023-03-31T08:21:33;7.43;;;1.48;;
15126;SDS011;7664;52.008;4.748;2023-03-31T08:24:08;6.45;;;1.52;;
15126;SDS011;7664;52.008;4.748;2023-03-31T08:26:36;4.97;;;1.80;;
15126;SDS011;7664;52.008;4.748;2023-03-31T08:29:06;5.43;;;1.27;;
15126;SDS011;7664;52.008;4.748;2023-03-31T08:31:34;3.35;;;1.20;;
15126;SDS011;7664;52.008;4.748;2023-03-31T08:34:03;7.03;;;1.38;;
15126;SDS011;7664;52.008;4.748;2023-03-31T08:36:33;3.95;;;1.00;;
15126;SDS011;7664;52.008;4.748;2023-03-31T08:39:02;5.45;;;1.70;;
15126;SDS011;7664;52.008;4.748;2023-03-31T08:41:48;6.28;;;1.63;;
15126;SDS011;7664;52.008;4.748;2023-03-31T08:44:20;9.48;;;1.95;;
15126;SDS011;7664;52.008;4.748;2023-03-31T08:46:50;6.97;;;1.77;;
15126;SDS011;7664;52.008;4.748;2023-03-31T08:49:20;6.93;;;1.90;;
15126;SDS011;7664;52.008;4.748;2023-03-31T08:51:53;10.60;;;1.73;;
15126;SDS011;7664;52.008;4.748;2023-03-31T08:54:30;8.93;;;2.05;;
15126;SDS011;7664;52.008;4.748;2023-03-31T08:57:01;7.75;;;2.33;;
15126;SDS011;7664;52.008;4.748;2023-03-31T08:59:37;6.93;;;1.95;;
15126;SDS011;7664;52.008;4.748;2023-03-31T09:02:10;8.88;;;2.47;;
15126;SDS011;7664;52.008;4.748;2023-03-31T09:04:46;9.73;;;2.08;;
15126;SDS011;7664;52.008;4.748;2023-03-31T09:07:19;12.02;;;2.25;;
15126;SDS011;7664;52.008;4.748;2023-03-31T09:09:54;6.35;;;2.15;;
15126;SDS011;7664;52.008;4.748;2023-03-31T09:12:29;7.90;;;2.17;;
15126;SDS011;7664;52.008;4.748;2023-03-31T09:15:05;7.93;;;1.83;;
15126;SDS011;7664;52.008;4.748;2023-03-31T09:17:39;9.75;;;2.67;;
15126;SDS011;7664;52.008;4.748;2023-03-31T09:20:11;5.35;;;1.60;;
15126;SDS011;7664;52.008;4.748;2023-03-31T09:22:42;14.90;;;2.10;;
15126;SDS011;7664;52.008;4.748;2023-03-31T09:25:27;7.03;;;1.63;;
15126;SDS011;7664;52.008;4.748;2023-03-31T09:28:01;13.07;;;2.58;;
15126;SDS011;7664;52.008;4.748;2023-03-31T09:30:35;9.30;;;1.85;;
15126;SDS011;7664;52.008;4.748;2023-03-31T09:33:09;5.20;;;1.40;;
15126;SDS011;7664;52.008;4.748;2023-03-31T09:35:38;7.28;;;1.70;;
15126;SDS011;7664;52.008;4.748;2023-03-31T09:38:12;6.10;;;2.20;;
15126;SDS011;7664;52.008;4.748;2023-03-31T09:40:41;7.28;;;2.83;;
15126;SDS011;7664;52.008;4.748;2023-03-31T09:43:13;8.13;;;1.63;;
15126;SDS011;7664;52.008;4.748;2023-03-31T09:45:44;14.23;;;2.13;;
15126;SDS011;7664;52.008;4.748;2023-03-31T09:48:33;5.35;;;1.40;;
15126;SDS011;7664;52.008;4.748;2023-03-31T09:51:04;7.78;;;1.73;;
15126;SDS011;7664;52.008;4.748;2023-03-31T09:53:37;9.57;;;2.35;;
15126;SDS011;7664;52.008;4.748;2023-03-31T09:56:08;9.77;;;2.67;;
15126;SDS011;7664;52.008;4.748;2023-03-31T09:58:41;6.78;;;2.28;;
15126;SDS011;7664;52.008;4.748;2023-03-31T10:01:14;5.10;;;1.30;;
15126;SDS011;7664;52.008;4.748;2023-03-31T10:03:46;7.50;;;1.77;;
15126;SDS011;7664;52.008;4.748;2023-03-31T10:06:16;12.20;;;2.28;;
15126;SDS011;7664;52.008;4.748;2023-03-31T10:08:46;8.73;;;1.80;;
15126;SDS011;7664;52.008;4.748;2023-03-31T10:11:20;6.32;;;1.55;;
15126;SDS011;7664;52.008;4.748;2023-03-31T10:13:51;6.63;;;1.63;;
15126;SDS011;7664;52.008;4.748;2023-03-31T10:16:26;9.15;;;1.95;;
15126;SDS011;7664;52.008;4.748;2023-03-31T10:18:58;10.88;;;2.42;;
15126;SDS011;7664;52.008;4.748;2023-03-31T10:21:38;6.22;;;2.17;;
15126;SDS011;7664;52.008;4.748;2023-03-31T10:24:07;9.05;;;2.13;;
15126;SDS011;7664;52.008;4.748;2023-03-31T10:26:36;8.52;;;2.03;;
15126;SDS011;7664;52.008;4.748;2023-03-31T10:29:10;8.40;;;1.35;;
15126;SDS011;7664;52.008;4.748;2023-03-31T10:31:40;6.53;;;1.60;;
15126;SDS011;7664;52.008;4.748;2023-03-31T10:34:11;4.90;;;1.60;;
15126;SDS011;7664;52.008;4.748;2023-03-31T10:36:43;8.45;;;1.90;;
15126;SDS011;7664;52.008;4.748;2023-03-31T10:39:13;8.48;;;1.83;;
15126;SDS011;7664;52.008;4.748;2023-03-31T10:41:42;6.75;;;1.50;;
15126;SDS011;7664;52.008;4.748;2023-03-31T10:44:30;6.45;;;1.85;;
15126;SDS011;7664;52.008;4.748;2023-03-31T10:47:02;8.20;;;1.90;;
15126;SDS011;7664;52.008;4.748;2023-03-31T10:49:36;8.25;;;1.58;;
15126;SDS011;7664;52.008;4.748;2023-03-31T10:52:14;6.38;;;1.88;;
15126;SDS011;7664;52.008;4.748;2023-03-31T10:54:47;8.90;;;1.85;;
15126;SDS011;7664;52.008;4.748;2023-03-31T10:57:16;10.48;;;2.45;;
15126;SDS011;7664;52.008;4.748;2023-03-31T10:59:55;9.57;;;2.35;;
15126;SDS011;7664;52.008;4.748;2023-03-31T11:02:38;10.05;;;2.20;;
15126;SDS011;7664;52.008;4.748;2023-03-31T11:05:16;5.53;;;1.77;;
15126;SDS011;7664;52.008;4.748;2023-03-31T11:07:51;6.32;;;1.55;;
15126;SDS011;7664;52.008;4.748;2023-03-31T11:13:09;9.48;;;1.33;;
15126;SDS011;7664;52.008;4.748;2023-03-31T11:15:47;9.52;;;2.03;;
15126;SDS011;7664;52.008;4.748;2023-03-31T11:18:27;7.75;;;1.50;;
15126;SDS011;7664;52.008;4.748;2023-03-31T11:21:01;5.85;;;1.38;;
15126;SDS011;7664;52.008;4.748;2023-03-31T11:23:34;9.82;;;2.22;;
15126;SDS011;7664;52.008;4.748;2023-03-31T11:26:06;5.97;;;1.35;;
15126;SDS011;7664;52.008;4.748;2023-03-31T11:28:39;11.05;;;1.52;;
15126;SDS011;7664;52.008;4.748;2023-03-31T11:31:19;4.53;;;1.58;;
15126;SDS011;7664;52.008;4.748;2023-03-31T11:34:06;7.35;;;1.55;;
15126;SDS011;7664;52.008;4.748;2023-03-31T11:36:45;6.30;;;1.20;;
15126;SDS011;7664;52.008;4.748;2023-03-31T11:39:19;3.60;;;0.93;;
15126;SDS011;7664;52.008;4.748;2023-03-31T11:41:53;3.42;;;1.00;;
15126;SDS011;7664;52.008;4.748;2023-03-31T11:44:24;4.13;;;1.10;;
15126;SDS011;7664;52.008;4.748;2023-03-31T11:46:56;3.47;;;0.95;;
15126;SDS011;7664;52.008;4.748;2023-03-31T11:49:29;4.53;;;1.50;;
15126;SDS011;7664;52.008;4.748;2023-03-31T11:52:05;5.80;;;0.98;;
15126;SDS011;7664;52.008;4.748;2023-03-31T11:54:38;5.25;;;1.50;;
15126;SDS011;7664;52.008;4.748;2023-03-31T11:57:09;3.33;;;0.80;;
15126;SDS011;7664;52.008;4.748;2023-03-31T11:59:39;1.92;;;0.77;;
15126;SDS011;7664;52.008;4.748;2023-03-31T12:02:15;2.58;;;0.73;;
15126;SDS011;7664;52.008;4.748;2023-03-31T12:04:46;2.20;;;0.52;;
15126;SDS011;7664;52.008;4.748;2023-03-31T12:07:20;5.35;;;1.10;;
15126;SDS011;7664;52.008;4.748;2023-03-31T12:09:57;2.67;;;0.80;;
15126;SDS011;7664;52.008;4.748;2023-03-31T12:12:32;2.38;;;0.60;;
15126;SDS011;7664;52.008;4.748;2023-03-31T12:15:05;5.60;;;1.33;;
15126;SDS011;7664;52.008;4.748;2023-03-31T12:17:38;5.15;;;0.88;;
15126;SDS011;7664;52.008;4.748;2023-03-31T12:20:11;5.55;;;1.17;;
15126;SDS011;7664;52.008;4.748;2023-03-31T12:22:42;6.93;;;1.55;;
15126;SDS011;7664;52.008;4.748;2023-03-31T12:25:11;4.15;;;1.00;;
15126;SDS011;7664;52.008;4.748;2023-03-31T12:27:41;6.25;;;1.50;;
15126;SDS011;7664;52.008;4.748;2023-03-31T12:30:10;5.38;;;1.40;;
15126;SDS011;7664;52.008;4.748;2023-03-31T12:32:44;4.25;;;1.38;;
15126;SDS011;7664;52.008;4.748;2023-03-31T12:35:16;6.50;;;1.65;;
15126;SDS011;7664;52.008;4.748;2023-03-31T12:38:02;4.55;;;1.25;;
15126;SDS011;7664;52.008;4.748;2023-03-31T12:40:44;4.53;;;1.42;;
15126;SDS011;7664;52.008;4.748;2023-03-31T12:43:17;6.15;;;1.45;;
15126;SDS011;7664;52.008;4.748;2023-03-31T12:45:50;5.70;;;1.00;;
15126;SDS011;7664;52.008;4.748;2023-03-31T12:51:15;8.80;;;1.58;;
15126;SDS011;7664;52.008;4.748;2023-03-31T12:53:54;5.38;;;1.02;;
15126;SDS011;7664;52.008;4.748;2023-03-31T12:56:29;5.10;;;1.13;;
15126;SDS011;7664;52.008;4.748;2023-03-31T12:59:16;4.93;;;1.08;;
15126;SDS011;7664;52.008;4.748;2023-03-31T13:04:29;3.97;;;1.02;;
15126;SDS011;7664;52.008;4.748;2023-03-31T13:07:00;2.90;;;0.73;;
15126;SDS011;7664;52.008;4.748;2023-03-31T13:09:54;2.67;;;1.00;;
15126;SDS011;7664;52.008;4.748;2023-03-31T13:12:24;3.00;;;0.98;;
15126;SDS011;7664;52.008;4.748;2023-03-31T13:14:54;3.70;;;1.15;;
15126;SDS011;7664;52.008;4.748;2023-03-31T13:17:26;2.88;;;1.15;;
15126;SDS011;7664;52.008;4.748;2023-03-31T13:19:56;1.95;;;0.90;;
15126;SDS011;7664;52.008;4.748;2023-03-31T13:22:44;2.45;;;0.90;;
15126;SDS011;7664;52.008;4.748;2023-03-31T13:25:25;4.40;;;1.27;;
15126;SDS011;7664;52.008;4.748;2023-03-31T13:27:54;4.13;;;0.73;;
15126;SDS011;7664;52.008;4.748;2023-03-31T13:33:12;3.15;;;0.80;;
15126;SDS011;7664;52.008;4.748;2023-03-31T13:35:47;4.60;;;0.90;;
15126;SDS011;7664;52.008;4.748;2023-03-31T13:38:21;3.30;;;1.00;;
15126;SDS011;7664;52.008;4.748;2023-03-31T13:41:07;5.85;;;1.27;;
15126;SDS011;7664;52.008;4.748;2023-03-31T13:49:19;2.55;;;0.88;;
15126;SDS011;7664;52.008;4.748;2023-03-31T13:51:53;6.13;;;1.20;;
15126;SDS011;7664;52.008;4.748;2023-03-31T13:57:28;6.57;;;1.02;;
15126;SDS011;7664;52.008;4.748;2023-03-31T14:00:03;5.45;;;1.27;;
15126;SDS011;7664;52.008;4.748;2023-03-31T14:02:42;2.90;;;0.80;;
15126;SDS011;7664;52.008;4.748;2023-03-31T14:05:24;2.97;;;0.70;;
15126;SDS011;7664;52.008;4.748;2023-03-31T14:07:57;2.75;;;1.00;;
15126;SDS011;7664;52.008;4.748;2023-03-31T14:10:30;2.90;;;0.77;;
15126;SDS011;7664;52.008;4.748;2023-03-31T14:13:07;3.47;;;0.70;;
15126;SDS011;7664;52.008;4.748;2023-03-31T14:15:36;5.50;;;0.70;;
15126;SDS011;7664;52.008;4.748;2023-03-31T14:18:09;3.50;;;0.88;;
15126;SDS011;7664;52.008;4.748;2023-03-31T14:20:41;3.20;;;0.60;;
15126;SDS011;7664;52.008;4.748;2023-03-31T14:23:21;1.42;;;0.50;;
15126;SDS011;7664;52.008;4.748;2023-03-31T14:25:55;1.67;;;0.60;;
15126;SDS011;7664;52.008;4.748;2023-03-31T14:28:33;3.45;;;1.00;;
15126;SDS011;7664;52.008;4.748;2023-03-31T14:31:11;1.85;;;0.65;;
15126;SDS011;7664;52.008;4.748;2023-03-31T14:33:49;2.90;;;0.77;;
15126;SDS011;7664;52.008;4.748;2023-03-31T14:36:22;1.85;;;0.50;;
15126;SDS011;7664;52.008;4.748;2023-03-31T14:39:00;4.97;;;0.80;;
15126;SDS011;7664;52.008;4.748;2023-03-31T14:41:29;4.22;;;1.17;;
15126;SDS011;7664;52.008;4.748;2023-03-31T14:44:00;1.45;;;0.60;;
15126;SDS011;7664;52.008;4.748;2023-03-31T14:46:31;2.25;;;0.60;;
15126;SDS011;7664;52.008;4.748;2023-03-31T14:49:05;1.92;;;0.52;;
15126;SDS011;7664;52.008;4.748;2023-03-31T14:51:35;3.55;;;0.75;;
15126;SDS011;7664;52.008;4.748;2023-03-31T14:54:13;1.48;;;0.88;;
15126;SDS011;7664;52.008;4.748;2023-03-31T14:56:49;4.82;;;0.95;;
15126;SDS011;7664;52.008;4.748;2023-03-31T14:59:23;1.58;;;0.75;;
15126;SDS011;7664;52.008;4.748;2023-03-31T15:01:58;1.90;;;0.60;;
15126;SDS011;7664;52.008;4.748;2023-03-31T15:04:28;5.00;;;0.70;;
15126;SDS011;7664;52.008;4.748;2023-03-31T15:07:08;4.05;;;0.77;;
15126;SDS011;7664;52.008;4.748;2023-03-31T15:09:47;1.05;;;0.60;;
15126;SDS011;7664;52.008;4.748;2023-03-31T15:12:17;5.22;;;1.08;;
15126;SDS011;7664;52.008;4.748;2023-03-31T15:14:49;4.50;;;1.23;;
15126;SDS011;7664;52.008;4.748;2023-03-31T15:17:20;2.75;;;1.13;;
15126;SDS011;7664;52.008;4.748;2023-03-31T15:19:55;1.27;;;1.00;;
15126;SDS011;7664;52.008;4.748;2023-03-31T15:22:24;5.35;;;0.85;;
15126;SDS011;7664;52.008;4.748;2023-03-31T15:24:53;7.03;;;1.35;;
15126;SDS011;7664;52.008;4.748;2023-03-31T15:27:29;3.05;;;0.70;;
15126;SDS011;7664;52.008;4.748;2023-03-31T15:30:06;2.70;;;0.90;;
15126;SDS011;7664;52.008;4.748;2023-03-31T15:32:36;3.83;;;0.85;;
15126;SDS011;7664;52.008;4.748;2023-03-31T15:35:12;4.47;;;0.75;;
15126;SDS011;7664;52.008;4.748;2023-03-31T15:37:48;2.38;;;0.80;;
15126;SDS011;7664;52.008;4.748;2023-03-31T15:40:18;3.10;;;0.70;;
15126;SDS011;7664;52.008;4.748;2023-03-31T15:42:52;1.27;;;0.73;;
15126;SDS011;7664;52.008;4.748;2023-03-31T15:48:28;4.78;;;0.95;;
15126;SDS011;7664;52.008;4.748;2023-03-31T15:51:05;3.00;;;0.95;;
15126;SDS011;7664;52.008;4.748;2023-03-31T15:53:35;1.58;;;0.73;;
15126;SDS011;7664;52.008;4.748;2023-03-31T15:56:04;1.60;;;0.55;;
15126;SDS011;7664;52.008;4.748;2023-03-31T15:58:52;3.40;;;1.08;;
15126;SDS011;7664;52.008;4.748;2023-03-31T16:01:21;4.57;;;1.70;;
15126;SDS011;7664;52.008;4.748;2023-03-31T16:03:52;1.90;;;1.00;;